Thomaston, New York
Current Conditions -  °F | °C
As of 6:51 AM on Saturday 25 Oct 2014 (Local Time) from KLGA Reporting Station
Few Clouds Few Clouds  
Wind Chill: 11°   Ceiling: Unl
Heat Index: 11°   Visibility: 10mi
Dew Point:   Wind: 8mph
Humidity: 57%   Direction: 300°WNW
Pressure: 29.86"   Gusts: NA
Location:  40.786°N, 73.7291°W
Report Text: KLGA 251051Z 30007KT 10SM FEW250 11/03 A2986 RMK AO2 SLP110 T01110028
Loading
Personal Weather Stations






























Interactive Weather Map
Tropical Storm Tracking
New forecast layout! Learn more

10-Day Weather Forecast

Advertisements
Track Severe Weather on mobile